Sand Spring Valley, Nevada Weather observations

Data are for 10 minute period ending at time listed.
 Day   Time   Solar   Ave.   Ave.  Ave.  Vector  Max.   Baro.   Total    
  of    of     Rad.   Air    Rel.  Wind   Wind   Wind  Press.  Precip.   
Year   Day            Temp.  Hum.  Speed  Dir.   Gust                    
2016   (PST)  Kw/m2    F      %     mph   deg.    mph    mb.     in.     
-------------------------------------------------------------------------
 124    2:00   0.00   38.7    86    1.6   230     2.1   856.2    0.00 
 124    2:10   0.00   38.1    87    4.4   228     6.2   856.3    0.00 
 124    2:20   0.00   36.2    88    5.8   224     6.7   856.4    0.00 
 124    2:30   0.00   35.5    89    4.5   228     5.5   856.4    0.00 
 124    2:40   0.00   35.7    90    5.2   226     6.8   856.4    0.00 
 124    2:50   0.00   35.1    90    4.6   218     5.6   856.4    0.00 
 124    3:00   0.00   34.7    90    3.9   212     4.7   856.4    0.00 
 124    3:10   0.00   34.3    91    1.9   216     3.8   856.4    0.00 
 124    3:20   0.00   35.2    92    2.5   237     3.7   856.5    0.00 
 124    3:30   0.00   35.7    91    4.4   263     5.9   856.5    0.00 
 124    3:40   0.00   35.8    90    4.2   246     5.4   856.6    0.00 
 124    3:50   0.00   36.6    91    3.2   234     3.9   856.6    0.00 
 124    4:00   0.00   36.4    90    3.1   233     4.2   856.6    0.00 
 124    4:10   0.00   34.7    90    2.9   233     3.8   856.6    0.00 
 124    4:20   0.00   34.4    91    1.2   234     2.6   856.6    0.00 
 124    4:30   0.00   34.4    91    0.9   233     2.6   856.7    0.00 
 124    4:40   0.00   35.1    91    3.4   228     4.1   856.8    0.00 
 124    4:50   0.00   34.8    91    3.4   230     4.0   856.9    0.00 
 124    5:00   0.00   35.4    92    3.0   231     4.3   857.0    0.00 
 124    5:10   0.00   34.8    90    4.0   231     4.3   857.1    0.00 
 124    5:20   0.00   34.1    90    3.5   231     4.7   857.2    0.00 
 124    5:30   0.00   35.0    91    2.8   240     3.6   857.3    0.00 
 124    5:40   0.00   36.0    90    2.3   238     3.3   857.4    0.00 
 124    5:50   0.00   37.8    90    1.0   230     2.5   857.4    0.00 
 124    6:00   0.00   39.7    90    0.7   233     2.7   857.5    0.00 
 124    6:10   0.00   41.8    86    2.2   225     3.4   857.5    0.00 
 124    6:20   0.00   42.6    85    2.7   228     3.7   857.5    0.00 
 124    6:30   0.00   44.9    80    2.8   207     4.1   857.4    0.00 
 124    6:40   0.00   45.9    77    2.2   219     3.7   857.5    0.00 
 124    6:50   0.00   46.9    76    1.7   230     3.7   857.5    0.00 
 124    7:00   0.00   48.9    73    0.2   240     1.8   857.4    0.00 
 124    7:10   0.00   51.3    68    0.6   221     2.6   857.3    0.00 
 124    7:20   0.00   51.0    64    0.4   221     2.0   857.2    0.00 
 124    7:30   0.00   51.3    64    1.6   328     3.8   857.1    0.00 
 124    7:40   0.00   51.0    63    2.5   335     5.1   857.1    0.00 
 124    7:50   0.00   51.5    63    3.6   348     5.8   857.1    0.00 
 124    8:00   0.00   53.2    62    1.1    18     5.0   857.0    0.00 
 124    8:10   0.00   55.3    60    2.0    92     4.8   857.0    0.00 
 124    8:20   0.00   55.3    59    2.7   150     5.4   857.0    0.00 
 124    8:30   0.00   57.0    54    1.0   112     2.8   857.0    0.00 
 124    8:40   0.00   58.1    53    2.2    98     4.7   857.0    0.00 
 124    8:50   0.00   58.5    51    1.8    99     4.3   857.0    0.00 
 124    9:00   0.00   59.7    44    3.1    71     6.3   857.0    0.00 
 124    9:10   0.00   60.4    43    2.6    61     5.5   857.0    0.00 
 124    9:20   0.00   61.8    40    2.4    72     6.7   857.0    0.00 
 124    9:30   0.00   62.5    36    2.6    49     6.6   857.1    0.00 
 124    9:40   0.00   63.7    37    1.7   248     6.2   857.1    0.00 
 124    9:50   0.00   65.4    32    3.2   100     8.4   857.0    0.00 
 124   10:00   0.00   65.1    30    5.1    98    11.8   857.0    0.00 
 124   10:10   0.00   66.0    29    5.5    97    15.4   856.9    0.00 
 124   10:20   0.00   65.9    27    9.2   118    16.4   856.9    0.00 
 124   10:30   0.00   66.2    28   12.9   131    19.2   856.8    0.00 
 124   10:40   0.00   66.4    27   13.4   135    22.5   856.7    0.00 
 124   10:50   0.00   67.0    26   11.3   126    23.8   856.6    0.00 
 124   11:00   0.00   66.9    26   13.4   141    21.3   856.4    0.00 
 124   11:10   0.00   67.3    26   12.0   143    19.1   856.4    0.00 
 124   11:20   0.00   67.2    25   11.7   142    19.4   856.4    0.00 
 124   11:30   0.00   67.5    24   10.6   130    19.3   856.3    0.00 
 124   11:40   0.00   67.9    23    8.2   129    14.8   856.2    0.00 
 124   11:50   0.00   67.9    23    9.0   125    14.4   856.1    0.00 
 124   12:00   0.00   68.2    22    7.5   149    13.5   856.1    0.00 
 124   12:10   0.00   68.2    23    9.1   138    16.2   856.0    0.00 
 124   12:20   0.00   68.5    22    6.0   117    12.8   855.9    0.00 
 124   12:30   0.00   68.5    23    7.2   141    12.4   855.8    0.00 
 124   12:40   0.00   69.5    22    3.2   189     9.4   855.7    0.00 
 124   12:50   0.00   69.5    22    8.1   122    17.0   855.6    0.00 
 124   13:00   0.00   69.6    21    7.1   143    11.8   855.6    0.00 
 124   13:10   0.00   69.5    23    8.1   143    15.4   855.6    0.00 
 124   13:20   0.00   69.9    22    6.0   119    10.2   855.5    0.00 
 124   13:30   0.00   70.2    22    5.4   118    10.9   855.3    0.00 
 124   13:40   0.00   70.1    25    8.1   149    13.3   855.1    0.00 
 124   13:50   0.00   70.1    23   11.0   108    19.6   855.0    0.00 
 124   14:00   0.00   69.8    25    8.6   136    17.5   855.0    0.00 
 124   14:10   0.00   70.0    27   11.7   141    17.8   854.8    0.00 
 124   14:20   0.00   69.7    28   10.7   152    15.9   854.8    0.00 
 124   14:30   0.00   70.5    22    3.5   153    10.8   854.7    0.00 
 124   14:40   0.00   69.9    25    8.8   116    14.4   854.7    0.00 
 124   14:50   0.00   69.8    26    7.3   123    13.3   854.6    0.00 
 124   15:00   0.00   68.7    28    8.6   148    14.3   854.5    0.00 
 124   15:10   0.00   69.3    29    8.3   146    13.7   854.3    0.00 
 124   15:20   0.00   69.4    28    8.2   140    17.0   854.3    0.00 
 124   15:30   0.00   69.8    28   10.5   141    16.8   854.3    0.00 
 124   15:40   0.00   70.2    26    8.2   145    15.5   854.2    0.00 
 124   15:50   0.00   69.7    27    9.7   127    15.2   854.2    0.00 
 124   16:00   0.00   69.6    27    7.9   123    15.1   854.1    0.00 
 124   16:10   0.00   69.7    26    9.2   119    15.5   854.1    0.00 
 124   16:20   0.00   69.5    26    9.9   139    16.1   854.1    0.00 
 124   16:30   0.00   69.7    25    6.1   140    11.7   854.1    0.00 
 124   16:40   0.00   69.5    26    9.1   139    14.9   854.0    0.00 
 124   16:50   0.00   69.4    26    7.4   133    11.2   854.0    0.00 
 124   17:00   0.00   69.5    24    7.7   125    14.0   853.9    0.00 
 124   17:10   0.00   68.9    25    7.5   124    11.7   854.1    0.00 
 124   17:20   0.00   68.3    28    7.7   152    14.2   854.1    0.00 
 124   17:30   0.00   67.5    28    7.5   147    11.6   853.9    0.00 
 124   17:40   0.00   66.0    30    6.9   133    10.7   853.9    0.00 
 124   17:50   0.00   64.9    30    8.1   148    11.6   853.8    0.00 
 124   18:00   0.00   64.1    32    6.6   159     8.9   853.8    0.00 
 124   18:10   0.00   63.4    34    5.3   162     8.0   853.7    0.00 
 124   18:20   0.00   61.7    40    4.2   166     5.4   853.7    0.00 
 124   18:30   0.00   62.1    36    3.8   174     5.6   853.7    0.00 
 124   18:40   0.00   61.2    36    3.3   183     4.5   853.8    0.00 
 124   18:50   0.00   60.5    41    2.9   176     4.0   853.7    0.00 
 124   19:00   0.00   59.5    44    2.1   176     3.7   853.7    0.00 
 124   19:10   0.00   58.1    50    1.5   176     2.4   853.7    0.00 
 124   19:20   0.00   57.7    48    1.9   172     2.7   853.7    0.00 
 124   19:30   0.00   58.7    48    1.2   172     2.3   853.7    0.00 
 124   19:40   0.00   58.0    54    1.3   101     3.5   853.7    0.00 
 124   19:50   0.00   57.7    52    1.0    88     2.0   853.8    0.00 
 124   20:00   0.00   57.5    51    0.8    88     1.5   853.8    0.00 
 124   20:10   0.00   57.2    49    0.3    88     1.5   853.8    0.00 
 124   20:20   0.00   56.8    50    0.6    88     1.3   853.8    0.00 
 124   20:30   0.00   56.9    49    1.9    80     5.6   853.8    0.00 
 124   20:40   0.00   58.0    46    0.4    67     2.7   853.9    0.00 
 124   20:50   0.00   58.0    47    2.7    58     5.3   853.8    0.00 
 124   21:00   0.00   56.3    57    1.4    58     4.7   853.8    0.00 
 124   21:10   0.00   55.9    54    2.4    68     4.1   853.8    0.00 
 124   21:20   0.00   57.4    46    3.1    81     4.8   853.8    0.00 
 124   21:30   0.00   57.0    50    5.1    84     6.9   853.6    0.00 
 124   21:40   0.00   56.1    51    5.3    90     7.5   853.6    0.00 
 124   21:50   0.00   55.0    53    3.6   114     6.8   853.6    0.00 
 124   22:00   0.00   51.3    60    3.8   266     6.4   853.6    0.00 
 124   22:10   0.00   53.7    52    3.3   320     4.3   853.6    0.00 
 124   22:20   0.00   53.0    56    3.9   306     5.5   853.6    0.00 
 124   22:30   0.00   47.9    69    3.0   265     5.8   853.6    0.00 
 124   22:40   0.00   46.8    71    4.2   266     6.4   853.6    0.00 
 124   22:50   0.00   48.7    64    4.3   272     5.4   853.6    0.00 
 124   23:00   0.00   47.1    68    4.2   264     5.8   853.6    0.00 
 124   23:10   0.00   45.9    69    5.3   239     6.1   853.6    0.00 
 124   23:20   0.00   44.0    74    5.3   241     6.0   853.7    0.00 
 124   23:30   0.00   43.4    76    5.1   234     6.2   853.7    0.00 
 124   23:40   0.00   43.6    75    5.2   233     6.4   853.7    0.00 
 124   23:50   0.00   43.5    75    5.2   234     6.2   853.8    0.00 
 125    0:00   0.00   43.5    74    5.1   235     5.6   853.8    0.00 
 125    0:10   0.00   43.6    74    5.2   232     6.4   853.8    0.00 
 125    0:20   0.00   43.4    73    5.5   243     6.3   853.8    0.00 
 125    0:30   0.00   43.5    72    5.6   241     6.6   853.8    0.00 
 125    0:40   0.00   43.6    72    5.4   244     6.8   853.8    0.00 
 125    0:50   0.00   43.5    73    5.7   240     8.1   853.8    0.00 
 125    1:00   0.00   44.6    70    6.0   254     7.7   853.8    0.00 
 125    1:10   0.00   44.9    69    4.6   240     6.7   853.8    0.00 
 125    1:20   0.00   44.9    69    2.1   269     4.7   853.7    0.00 
 125    1:30   0.00   44.8    71    3.8   257     6.6   853.7    0.00 
 125    1:40   0.00   44.8    72    1.1   275     3.1   853.7    0.00 
 125    1:50   0.00   45.3    69    3.8   275     5.8   853.7    0.00 

Return to Sand Spring Valley graphs page.


Western Regional Climate Center,wrcc@dri.edu